This is the latest recevied weather packets stored in our database for station/object CT2HRB-13. If no packets are shown the sender has not sent any weather packets the latest 10 day(s).
| Time | Temp. | Humidity | Pressure | Rain* | Wind** | Luminosity | Snow |
|---|---|---|---|---|---|---|---|
| 1777902601 | 18.33° C | 53% | 1016.9 hPa | - | - | - | - |
| 1777902302 | 18.89° C | 52% | 1016.9 hPa | - | - | - | - |
| 1777902002 | 19.44° C | 50% | 1016.7 hPa | - | - | - | - |
| 1777901702 | 19.44° C | 50% | 1016.6 hPa | - | - | - | - |
| 1777901402 | 19.44° C | 51% | 1016.8 hPa | - | - | - | - |
| 1777901101 | 20° C | 49% | 1016.8 hPa | - | - | - | - |
| 1777900801 | 19.44° C | 51% | 1016.6 hPa | - | - | - | - |
| 1777900501 | 19.44° C | 48% | 1016.8 hPa | - | - | - | - |
| 1777900202 | 19.44° C | 50% | 1016.9 hPa | - | - | - | - |
| 1777899901 | 19.44° C | 50% | 1016.8 hPa | - | - | - | - |
| 1777899601 | 18.89° C | 49% | 1016.8 hPa | - | - | - | - |
| 1777899302 | 18.89° C | 52% | 1016.9 hPa | - | - | - | - |
| 1777899001 | 18.89° C | 52% | 1016.9 hPa | - | - | - | - |
| 1777898702 | 19.44° C | 50% | 1016.8 hPa | - | - | - | - |
| 1777898401 | 18.89° C | 52% | 1016.8 hPa | - | - | - | - |
| 1777898101 | 18.89° C | 52% | 1016.8 hPa | - | - | - | - |
| 1777897801 | 18.89° C | 52% | 1016.8 hPa | - | - | - | - |
| 1777897502 | 18.33° C | 52% | 1016.9 hPa | - | - | - | - |
| 1777897201 | 17.78° C | 54% | 1016.8 hPa | - | - | - | - |
| 1777896902 | 17.78° C | 54% | 1016.9 hPa | - | - | - | - |
| 1777896602 | 17.78° C | 56% | 1017.1 hPa | - | - | - | - |
| 1777896301 | 17.78° C | 56% | 1017.1 hPa | - | - | - | - |
| 1777896002 | 18.33° C | 55% | 1017.2 hPa | - | - | - | - |
| 1777895701 | 18.33° C | 53% | 1017 hPa | - | - | - | - |
| 1777895402 | 18.33° C | 54% | 1016.9 hPa | - | - | - | - |
* Rain since midnight (hover to see other rain measurements)
** Current wind speed in m/s (hover to see current wind gust speed)